sensor_id;sensor_type;location;lat;lon;timestamp;pressure;altitude;pressure_sealevel;temperature;humidity
55916;BME280;41826;53.246;-6.670;2023-03-13T00:00:34;97804.31;;;11.23;100.00
55916;BME280;41826;53.246;-6.670;2023-03-13T00:02:59;97773.59;;;11.23;100.00
55916;BME280;41826;53.246;-6.670;2023-03-13T00:05:25;97778.72;;;11.18;100.00
55916;BME280;41826;53.246;-6.670;2023-03-13T00:07:50;97781.56;;;11.17;100.00
55916;BME280;41826;53.246;-6.670;2023-03-13T00:10:16;97774.06;;;11.20;100.00
55916;BME280;41826;53.246;-6.670;2023-03-13T00:12:41;97768.88;;;11.14;100.00
55916;BME280;41826;53.246;-6.670;2023-03-13T00:15:07;97763.47;;;11.09;100.00
55916;BME280;41826;53.246;-6.670;2023-03-13T00:17:32;97769.09;;;11.12;100.00
55916;BME280;41826;53.246;-6.670;2023-03-13T00:19:58;97751.31;;;11.14;100.00
55916;BME280;41826;53.246;-6.670;2023-03-13T00:22:23;97745.91;;;11.09;100.00
55916;BME280;41826;53.246;-6.670;2023-03-13T00:24:48;97739.03;;;11.08;100.00
55916;BME280;41826;53.246;-6.670;2023-03-13T00:27:14;97724.31;;;11.07;100.00
55916;BME280;41826;53.246;-6.670;2023-03-13T00:29:39;97715.88;;;11.05;100.00
55916;BME280;41826;53.246;-6.670;2023-03-13T00:32:05;97699.66;;;11.08;100.00
55916;BME280;41826;53.246;-6.670;2023-03-13T00:34:30;97705.50;;;11.10;100.00
55916;BME280;41826;53.246;-6.670;2023-03-13T00:36:56;97686.34;;;11.10;100.00
55916;BME280;41826;53.246;-6.670;2023-03-13T00:39:21;97691.94;;;11.13;100.00
55916;BME280;41826;53.246;-6.670;2023-03-13T00:41:47;97678.66;;;11.08;100.00
55916;BME280;41826;53.246;-6.670;2023-03-13T00:44:13;97692.81;;;11.07;100.00
55916;BME280;41826;53.246;-6.670;2023-03-13T00:46:38;97679.31;;;11.03;100.00
55916;BME280;41826;53.246;-6.670;2023-03-13T00:49:04;97676.47;;;11.05;100.00
55916;BME280;41826;53.246;-6.670;2023-03-13T00:51:30;97673.28;;;11.03;100.00
55916;BME280;41826;53.246;-6.670;2023-03-13T00:53:57;97665.78;;;11.06;100.00
55916;BME280;41826;53.246;-6.670;2023-03-13T00:56:26;97670.66;;;11.03;100.00
55916;BME280;41826;53.246;-6.670;2023-03-13T00:58:52;97657.66;;;11.08;100.00
55916;BME280;41826;53.246;-6.670;2023-03-13T01:01:23;97647.41;;;11.06;100.00
55916;BME280;41826;53.246;-6.670;2023-03-13T01:03:51;97639.41;;;11.13;100.00
55916;BME280;41826;53.246;-6.670;2023-03-13T01:06:21;97641.56;;;11.04;100.00
55916;BME280;41826;53.246;-6.670;2023-03-13T01:08:47;97639.53;;;11.06;100.00
55916;BME280;41826;53.246;-6.670;2023-03-13T01:11:21;97642.63;;;11.15;100.00
55916;BME280;41826;53.246;-6.670;2023-03-13T01:13:48;97646.28;;;11.14;100.00
55916;BME280;41826;53.246;-6.670;2023-03-13T01:16:15;97634.31;;;11.18;100.00
55916;BME280;41826;53.246;-6.670;2023-03-13T01:18:43;97628.47;;;11.16;100.00
55916;BME280;41826;53.246;-6.670;2023-03-13T01:21:09;97618.34;;;11.20;100.00
55916;BME280;41826;53.246;-6.670;2023-03-13T01:23:35;97625.50;;;11.13;100.00
55916;BME280;41826;53.246;-6.670;2023-03-13T01:26:03;97633.50;;;11.18;100.00
55916;BME280;41826;53.246;-6.670;2023-03-13T01:28:29;97623.81;;;11.18;100.00
55916;BME280;41826;53.246;-6.670;2023-03-13T01:30:54;97609.44;;;11.21;100.00
55916;BME280;41826;53.246;-6.670;2023-03-13T01:33:20;97596.78;;;11.30;100.00
55916;BME280;41826;53.246;-6.670;2023-03-13T01:35:45;97594.25;;;11.23;100.00
55916;BME280;41826;53.246;-6.670;2023-03-13T01:38:10;97595.75;;;11.31;100.00
55916;BME280;41826;53.246;-6.670;2023-03-13T01:40:47;97590.38;;;11.25;100.00
55916;BME280;41826;53.246;-6.670;2023-03-13T01:43:21;97585.84;;;11.33;100.00
55916;BME280;41826;53.246;-6.670;2023-03-13T01:48:34;97575.53;;;11.31;100.00
55916;BME280;41826;53.246;-6.670;2023-03-13T01:51:03;97568.91;;;11.28;100.00
55916;BME280;41826;53.246;-6.670;2023-03-13T01:53:32;97554.09;;;11.34;100.00
55916;BME280;41826;53.246;-6.670;2023-03-13T01:56:00;97550.53;;;11.28;100.00
55916;BME280;41826;53.246;-6.670;2023-03-13T01:58:28;97546.31;;;11.27;100.00
55916;BME280;41826;53.246;-6.670;2023-03-13T02:00:54;97539.03;;;11.30;100.00
55916;BME280;41826;53.246;-6.670;2023-03-13T02:03:20;97533.78;;;11.30;100.00
55916;BME280;41826;53.246;-6.670;2023-03-13T02:05:47;97531.28;;;11.35;100.00
55916;BME280;41826;53.246;-6.670;2023-03-13T02:08:23;97531.03;;;11.24;100.00
55916;BME280;41826;53.246;-6.670;2023-03-13T02:11:06;97529.41;;;11.23;100.00
55916;BME280;41826;53.246;-6.670;2023-03-13T02:13:34;97530.19;;;11.24;100.00
55916;BME280;41826;53.246;-6.670;2023-03-13T02:16:00;97534.53;;;11.18;100.00
55916;BME280;41826;53.246;-6.670;2023-03-13T02:18:26;97529.88;;;11.20;100.00
55916;BME280;41826;53.246;-6.670;2023-03-13T02:20:57;97522.66;;;11.16;100.00
55916;BME280;41826;53.246;-6.670;2023-03-13T02:23:35;97518.31;;;11.21;100.00
55916;BME280;41826;53.246;-6.670;2023-03-13T02:26:03;97512.06;;;11.22;100.00
55916;BME280;41826;53.246;-6.670;2023-03-13T02:28:31;97506.81;;;11.22;100.00
55916;BME280;41826;53.246;-6.670;2023-03-13T02:30:58;97498.47;;;11.25;100.00
55916;BME280;41826;53.246;-6.670;2023-03-13T02:33:29;97488.78;;;11.26;100.00
55916;BME280;41826;53.246;-6.670;2023-03-13T02:35:57;97485.09;;;11.15;100.00
55916;BME280;41826;53.246;-6.670;2023-03-13T02:38:26;97481.22;;;11.18;100.00
55916;BME280;41826;53.246;-6.670;2023-03-13T02:40:54;97483.53;;;11.14;100.00
55916;BME280;41826;53.246;-6.670;2023-03-13T02:43:35;97485.31;;;11.14;100.00
55916;BME280;41826;53.246;-6.670;2023-03-13T02:46:11;97481.00;;;11.19;100.00
55916;BME280;41826;53.246;-6.670;2023-03-13T02:48:43;97481.00;;;11.19;100.00
55916;BME280;41826;53.246;-6.670;2023-03-13T02:51:48;97477.13;;;11.22;100.00
55916;BME280;41826;53.246;-6.670;2023-03-13T02:54:13;97478.59;;;11.18;100.00
55916;BME280;41826;53.246;-6.670;2023-03-13T02:56:41;97474.16;;;11.18;100.00
55916;BME280;41826;53.246;-6.670;2023-03-13T02:59:07;97474.81;;;11.14;100.00
55916;BME280;41826;53.246;-6.670;2023-03-13T03:01:33;97463.44;;;11.20;100.00
55916;BME280;41826;53.246;-6.670;2023-03-13T03:03:58;97470.59;;;11.13;100.00
55916;BME280;41826;53.246;-6.670;2023-03-13T03:06:24;97456.09;;;11.10;100.00
55916;BME280;41826;53.246;-6.670;2023-03-13T03:08:49;97469.13;;;11.05;100.00
55916;BME280;41826;53.246;-6.670;2023-03-13T03:11:15;97463.78;;;11.12;100.00
55916;BME280;41826;53.246;-6.670;2023-03-13T03:13:40;97458.03;;;11.03;100.00
55916;BME280;41826;53.246;-6.670;2023-03-13T03:16:10;97453.38;;;11.05;100.00
55916;BME280;41826;53.246;-6.670;2023-03-13T03:18:36;97452.44;;;10.99;100.00
55916;BME280;41826;53.246;-6.670;2023-03-13T03:21:03;97457.91;;;10.98;100.00
55916;BME280;41826;53.246;-6.670;2023-03-13T03:23:33;97461.44;;;10.92;100.00
55916;BME280;41826;53.246;-6.670;2023-03-13T03:26:00;97448.88;;;10.94;100.00
55916;BME280;41826;53.246;-6.670;2023-03-13T03:28:25;97438.72;;;10.85;100.00
55916;BME280;41826;53.246;-6.670;2023-03-13T03:30:51;97425.81;;;10.72;100.00
55916;BME280;41826;53.246;-6.670;2023-03-13T03:33:19;97442.47;;;10.66;100.00
55916;BME280;41826;53.246;-6.670;2023-03-13T03:35:44;97433.22;;;10.75;100.00
55916;BME280;41826;53.246;-6.670;2023-03-13T03:38:10;97430.94;;;10.67;100.00
55916;BME280;41826;53.246;-6.670;2023-03-13T03:40:35;97421.78;;;10.58;100.00
55916;BME280;41826;53.246;-6.670;2023-03-13T03:43:01;97422.22;;;10.55;100.00
55916;BME280;41826;53.246;-6.670;2023-03-13T03:45:26;97414.03;;;10.63;100.00
55916;BME280;41826;53.246;-6.670;2023-03-13T03:47:51;97417.56;;;10.57;100.00
55916;BME280;41826;53.246;-6.670;2023-03-13T03:50:17;97425.63;;;10.44;100.00
55916;BME280;41826;53.246;-6.670;2023-03-13T03:52:42;97426.75;;;10.48;100.00
55916;BME280;41826;53.246;-6.670;2023-03-13T03:55:08;97425.50;;;10.38;100.00
55916;BME280;41826;53.246;-6.670;2023-03-13T03:57:34;97429.25;;;10.43;100.00
55916;BME280;41826;53.246;-6.670;2023-03-13T03:59:59;97443.81;;;10.20;100.00
55916;BME280;41826;53.246;-6.670;2023-03-13T04:02:25;97460.44;;;10.32;100.00
55916;BME280;41826;53.246;-6.670;2023-03-13T04:04:50;97480.84;;;10.12;100.00
55916;BME280;41826;53.246;-6.670;2023-03-13T04:07:15;97501.81;;;10.30;100.00
55916;BME280;41826;53.246;-6.670;2023-03-13T04:09:41;97525.38;;;10.12;100.00
55916;BME280;41826;53.246;-6.670;2023-03-13T04:12:07;97541.56;;;10.27;100.00
55916;BME280;41826;53.246;-6.670;2023-03-13T04:14:32;97549.72;;;10.19;100.00
55916;BME280;41826;53.246;-6.670;2023-03-13T04:16:58;97573.00;;;10.27;100.00
55916;BME280;41826;53.246;-6.670;2023-03-13T04:19:23;97596.25;;;10.24;100.00
55916;BME280;41826;53.246;-6.670;2023-03-13T04:21:49;97618.75;;;10.13;100.00
55916;BME280;41826;53.246;-6.670;2023-03-13T04:24:14;97624.03;;;10.31;100.00
55916;BME280;41826;53.246;-6.670;2023-03-13T04:26:39;97653.81;;;10.12;100.00
55916;BME280;41826;53.246;-6.670;2023-03-13T04:29:05;97663.25;;;9.94;100.00
55916;BME280;41826;53.246;-6.670;2023-03-13T04:31:31;97660.72;;;10.06;100.00
55916;BME280;41826;53.246;-6.670;2023-03-13T04:33:57;97677.03;;;9.83;100.00
55916;BME280;41826;53.246;-6.670;2023-03-13T04:36:22;97678.00;;;10.14;100.00
55916;BME280;41826;53.246;-6.670;2023-03-13T04:38:48;97661.63;;;10.18;100.00
55916;BME280;41826;53.246;-6.670;2023-03-13T04:41:13;97661.53;;;10.07;100.00
55916;BME280;41826;53.246;-6.670;2023-03-13T04:43:39;97657.28;;;9.55;100.00
55916;BME280;41826;53.246;-6.670;2023-03-13T04:46:04;97638.09;;;9.62;100.00
55916;BME280;41826;53.246;-6.670;2023-03-13T04:48:30;97626.56;;;9.69;100.00
55916;BME280;41826;53.246;-6.670;2023-03-13T04:50:55;97600.59;;;9.68;100.00
55916;BME280;41826;53.246;-6.670;2023-03-13T04:53:20;97582.56;;;9.53;100.00
55916;BME280;41826;53.246;-6.670;2023-03-13T04:55:46;97569.63;;;9.58;100.00
55916;BME280;41826;53.246;-6.670;2023-03-13T04:58:12;97529.44;;;9.46;100.00
55916;BME280;41826;53.246;-6.670;2023-03-13T05:00:41;97495.56;;;9.51;100.00
55916;BME280;41826;53.246;-6.670;2023-03-13T05:03:07;97490.44;;;9.63;100.00
55916;BME280;41826;53.246;-6.670;2023-03-13T05:05:34;97499.13;;;9.57;100.00
55916;BME280;41826;53.246;-6.670;2023-03-13T05:08:00;97485.63;;;9.60;100.00
55916;BME280;41826;53.246;-6.670;2023-03-13T05:10:26;97469.34;;;9.58;100.00
55916;BME280;41826;53.246;-6.670;2023-03-13T05:12:51;97455.66;;;9.55;100.00
55916;BME280;41826;53.246;-6.670;2023-03-13T05:15:16;97456.16;;;9.64;100.00
55916;BME280;41826;53.246;-6.670;2023-03-13T05:17:43;97443.00;;;9.71;100.00
55916;BME280;41826;53.246;-6.670;2023-03-13T05:20:10;97439.06;;;9.62;100.00
55916;BME280;41826;53.246;-6.670;2023-03-13T05:22:38;97419.63;;;9.69;100.00
55916;BME280;41826;53.246;-6.670;2023-03-13T05:25:04;97415.47;;;9.62;100.00
55916;BME280;41826;53.246;-6.670;2023-03-13T05:27:30;97407.22;;;9.65;100.00
55916;BME280;41826;53.246;-6.670;2023-03-13T05:29:55;97412.00;;;9.68;100.00
55916;BME280;41826;53.246;-6.670;2023-03-13T05:32:21;97410.53;;;9.72;100.00
55916;BME280;41826;53.246;-6.670;2023-03-13T05:34:46;97406.94;;;9.54;100.00
55916;BME280;41826;53.246;-6.670;2023-03-13T05:37:12;97400.06;;;9.53;100.00
55916;BME280;41826;53.246;-6.670;2023-03-13T05:39:37;97396.06;;;9.51;100.00
55916;BME280;41826;53.246;-6.670;2023-03-13T05:42:03;97395.28;;;9.50;100.00
55916;BME280;41826;53.246;-6.670;2023-03-13T05:44:28;97391.28;;;9.48;100.00
55916;BME280;41826;53.246;-6.670;2023-03-13T05:46:53;97395.63;;;9.54;100.00
55916;BME280;41826;53.246;-6.670;2023-03-13T05:49:19;97401.38;;;9.63;100.00
55916;BME280;41826;53.246;-6.670;2023-03-13T05:51:44;97396.59;;;9.60;100.00
55916;BME280;41826;53.246;-6.670;2023-03-13T05:54:10;97411.44;;;9.47;100.00
55916;BME280;41826;53.246;-6.670;2023-03-13T05:56:36;97398.38;;;9.59;100.00
55916;BME280;41826;53.246;-6.670;2023-03-13T05:59:02;97399.78;;;9.62;100.00
55916;BME280;41826;53.246;-6.670;2023-03-13T06:01:27;97399.22;;;9.60;100.00
55916;BME280;41826;53.246;-6.670;2023-03-13T06:03:53;97399.22;;;9.60;100.00
55916;BME280;41826;53.246;-6.670;2023-03-13T06:06:18;97405.16;;;9.67;100.00
55916;BME280;41826;53.246;-6.670;2023-03-13T06:08:44;97391.28;;;9.48;100.00
55916;BME280;41826;53.246;-6.670;2023-03-13T06:11:09;97396.00;;;9.58;100.00
55916;BME280;41826;53.246;-6.670;2023-03-13T06:13:35;97400.50;;;9.50;100.00
55916;BME280;41826;53.246;-6.670;2023-03-13T06:16:00;97395.78;;;9.41;100.00
55916;BME280;41826;53.246;-6.670;2023-03-13T06:18:26;97395.41;;;9.37;100.00
55916;BME280;41826;53.246;-6.670;2023-03-13T06:20:57;97378.97;;;9.48;100.00
55916;BME280;41826;53.246;-6.670;2023-03-13T06:23:22;97374.63;;;9.42;100.00
55916;BME280;41826;53.246;-6.670;2023-03-13T06:25:48;97358.63;;;9.50;100.00
55916;BME280;41826;53.246;-6.670;2023-03-13T06:28:14;97359.06;;;9.47;100.00
55916;BME280;41826;53.246;-6.670;2023-03-13T06:30:40;97349.72;;;9.51;100.00
55916;BME280;41826;53.246;-6.670;2023-03-13T06:33:05;97342.47;;;9.53;100.00
55916;BME280;41826;53.246;-6.670;2023-03-13T06:35:31;97329.28;;;9.42;100.00
55916;BME280;41826;53.246;-6.670;2023-03-13T06:37:56;97332.56;;;9.55;100.00
55916;BME280;41826;53.246;-6.670;2023-03-13T06:40:21;97329.50;;;9.59;100.00
55916;BME280;41826;53.246;-6.670;2023-03-13T06:42:47;97328.66;;;9.65;100.00
55916;BME280;41826;53.246;-6.670;2023-03-13T06:45:12;97332.09;;;9.77;100.00
55916;BME280;41826;53.246;-6.670;2023-03-13T06:47:38;97325.78;;;9.66;100.00
55916;BME280;41826;53.246;-6.670;2023-03-13T06:50:03;97335.81;;;9.69;100.00
55916;BME280;41826;53.246;-6.670;2023-03-13T06:52:29;97330.09;;;9.61;100.00
55916;BME280;41826;53.246;-6.670;2023-03-13T06:54:54;97330.44;;;9.64;100.00
55916;BME280;41826;53.246;-6.670;2023-03-13T06:57:19;97327.81;;;9.64;100.00
55916;BME280;41826;53.246;-6.670;2023-03-13T06:59:45;97339.34;;;9.63;100.00
55916;BME280;41826;53.246;-6.670;2023-03-13T07:02:12;97333.50;;;9.61;100.00
55916;BME280;41826;53.246;-6.670;2023-03-13T07:04:37;97327.03;;;9.64;100.00
55916;BME280;41826;53.246;-6.670;2023-03-13T07:07:03;97324.56;;;9.69;100.00
55916;BME280;41826;53.246;-6.670;2023-03-13T07:09:29;97317.72;;;9.68;100.00
55916;BME280;41826;53.246;-6.670;2023-03-13T07:11:54;97317.00;;;9.61;100.00
55916;BME280;41826;53.246;-6.670;2023-03-13T07:14:22;97316.56;;;9.64;100.00
55916;BME280;41826;53.246;-6.670;2023-03-13T07:16:47;97313.50;;;9.67;100.00
55916;BME280;41826;53.246;-6.670;2023-03-13T07:19:13;97309.72;;;9.63;100.00
55916;BME280;41826;53.246;-6.670;2023-03-13T07:21:39;97307.25;;;9.68;100.00
55916;BME280;41826;53.246;-6.670;2023-03-13T07:24:05;97317.94;;;9.66;100.00
55916;BME280;41826;53.246;-6.670;2023-03-13T07:26:30;97313.06;;;9.70;100.00
55916;BME280;41826;53.246;-6.670;2023-03-13T07:28:56;97317.13;;;9.66;100.00
55916;BME280;41826;53.246;-6.670;2023-03-13T07:31:21;97314.59;;;9.77;100.00
55916;BME280;41826;53.246;-6.670;2023-03-13T07:33:52;97310.44;;;9.70;100.00
55916;BME280;41826;53.246;-6.670;2023-03-13T07:36:20;97316.94;;;9.67;100.00
55916;BME280;41826;53.246;-6.670;2023-03-13T07:38:50;97314.97;;;9.63;100.00
55916;BME280;41826;53.246;-6.670;2023-03-13T07:41:17;97290.38;;;9.64;100.00
55916;BME280;41826;53.246;-6.670;2023-03-13T07:43:43;97295.53;;;9.70;100.00
55916;BME280;41826;53.246;-6.670;2023-03-13T07:46:17;97297.03;;;9.78;100.00
55916;BME280;41826;53.246;-6.670;2023-03-13T07:48:44;97292.16;;;9.82;100.00
55916;BME280;41826;53.246;-6.670;2023-03-13T07:51:18;97292.81;;;9.77;100.00
55916;BME280;41826;53.246;-6.670;2023-03-13T07:53:44;97299.41;;;9.68;100.00
55916;BME280;41826;53.246;-6.670;2023-03-13T07:56:14;97289.91;;;9.67;100.00
55916;BME280;41826;53.246;-6.670;2023-03-13T07:58:40;97294.03;;;9.74;100.00
55916;BME280;41826;53.246;-6.670;2023-03-13T08:01:24;97290.06;;;9.72;100.00
55916;BME280;41826;53.246;-6.670;2023-03-13T08:03:49;97286.31;;;9.80;100.00
55916;BME280;41826;53.246;-6.670;2023-03-13T08:06:20;97289.31;;;9.83;100.00
55916;BME280;41826;53.246;-6.670;2023-03-13T08:08:48;97287.28;;;9.85;100.00
55916;BME280;41826;53.246;-6.670;2023-03-13T08:11:18;97295.13;;;9.85;100.00
55916;BME280;41826;53.246;-6.670;2023-03-13T08:13:44;97298.88;;;9.89;100.00
55916;BME280;41826;53.246;-6.670;2023-03-13T08:16:16;97305.28;;;9.93;100.00
55916;BME280;41826;53.246;-6.670;2023-03-13T08:18:44;97307.47;;;9.96;100.00
55916;BME280;41826;53.246;-6.670;2023-03-13T08:21:43;97307.47;;;9.96;100.00
55916;BME280;41826;53.246;-6.670;2023-03-13T08:24:07;97320.50;;;10.03;100.00
55916;BME280;41826;53.246;-6.670;2023-03-13T08:26:35;97318.66;;;10.04;100.00
55916;BME280;41826;53.246;-6.670;2023-03-13T08:29:09;97322.00;;;10.11;100.00
55916;BME280;41826;53.246;-6.670;2023-03-13T08:31:41;97322.78;;;10.11;100.00
55916;BME280;41826;53.246;-6.670;2023-03-13T08:34:07;97324.25;;;10.07;100.00
55916;BME280;41826;53.246;-6.670;2023-03-13T08:36:34;97337.34;;;10.07;100.00
55916;BME280;41826;53.246;-6.670;2023-03-13T08:39:03;97345.22;;;10.07;100.00
55916;BME280;41826;53.246;-6.670;2023-03-13T08:41:32;97348.09;;;10.17;100.00
55916;BME280;41826;53.246;-6.670;2023-03-13T08:44:00;97350.38;;;10.14;100.00
55916;BME280;41826;53.246;-6.670;2023-03-13T08:46:28;97348.47;;;10.21;100.00
55916;BME280;41826;53.246;-6.670;2023-03-13T08:48:54;97356.78;;;10.18;100.00
55916;BME280;41826;53.246;-6.670;2023-03-13T08:51:22;97360.97;;;10.19;100.00
55916;BME280;41826;53.246;-6.670;2023-03-13T08:53:48;97354.22;;;10.11;100.00
55916;BME280;41826;53.246;-6.670;2023-03-13T08:56:16;97362.34;;;10.22;100.00
55916;BME280;41826;53.246;-6.670;2023-03-13T08:58:47;97352.44;;;10.24;100.00
55916;BME280;41826;53.246;-6.670;2023-03-13T09:01:13;97358.03;;;10.27;100.00
55916;BME280;41826;53.246;-6.670;2023-03-13T09:03:40;97349.44;;;10.38;100.00
55916;BME280;41826;53.246;-6.670;2023-03-13T09:06:07;97352.38;;;10.30;100.00
55916;BME280;41826;53.246;-6.670;2023-03-13T09:08:33;97356.19;;;10.46;100.00
55916;BME280;41826;53.246;-6.670;2023-03-13T09:11:00;97358.28;;;10.56;100.00
55916;BME280;41826;53.246;-6.670;2023-03-13T09:13:26;97360.91;;;10.56;100.00
55916;BME280;41826;53.246;-6.670;2023-03-13T09:15:57;97364.06;;;10.58;100.00
55916;BME280;41826;53.246;-6.670;2023-03-13T09:18:23;97374.25;;;10.66;100.00
55916;BME280;41826;53.246;-6.670;2023-03-13T09:20:49;97382.47;;;10.70;100.00
55916;BME280;41826;53.246;-6.670;2023-03-13T09:23:15;97391.25;;;10.75;100.00
55916;BME280;41826;53.246;-6.670;2023-03-13T09:25:40;97383.38;;;10.75;100.00
55916;BME280;41826;53.246;-6.670;2023-03-13T09:28:06;97404.94;;;10.77;100.00
55916;BME280;41826;53.246;-6.670;2023-03-13T09:30:31;97413.50;;;10.84;100.00
55916;BME280;41826;53.246;-6.670;2023-03-13T09:32:56;97422.63;;;10.94;100.00
55916;BME280;41826;53.246;-6.670;2023-03-13T09:35:22;97423.44;;;10.82;100.00
55916;BME280;41826;53.246;-6.670;2023-03-13T09:37:47;97427.88;;;10.82;100.00
55916;BME280;41826;53.246;-6.670;2023-03-13T09:40:23;97437.47;;;10.88;100.00
55916;BME280;41826;53.246;-6.670;2023-03-13T09:42:59;97432.69;;;10.85;100.00
55916;BME280;41826;53.246;-6.670;2023-03-13T09:45:34;97435.50;;;10.83;100.00
55916;BME280;41826;53.246;-6.670;2023-03-13T09:48:23;97445.91;;;10.90;100.00
55916;BME280;41826;53.246;-6.670;2023-03-13T09:51:04;97453.09;;;10.83;100.00
55916;BME280;41826;53.246;-6.670;2023-03-13T09:54:36;97451.47;;;10.70;100.00
55916;BME280;41826;53.246;-6.670;2023-03-13T09:56:45;97448.16;;;10.75;100.00
55916;BME280;41826;53.246;-6.670;2023-03-13T10:01:48;97459.56;;;10.69;100.00
55916;BME280;41826;53.246;-6.670;2023-03-13T10:04:31;97450.38;;;10.90;100.00
55916;BME280;41826;53.246;-6.670;2023-03-13T10:06:59;97445.88;;;10.78;100.00
55916;BME280;41826;53.246;-6.670;2023-03-13T10:09:31;97439.88;;;10.90;100.00
55916;BME280;41826;53.246;-6.670;2023-03-13T10:12:10;97442.38;;;10.84;100.00
55916;BME280;41826;53.246;-6.670;2023-03-13T10:20:01;97439.97;;;10.83;100.00
55916;BME280;41826;53.246;-6.670;2023-03-13T10:22:33;97445.09;;;10.66;100.00
55916;BME280;41826;53.246;-6.670;2023-03-13T10:25:35;97444.53;;;10.88;100.00
55916;BME280;41826;53.246;-6.670;2023-03-13T10:28:03;97434.75;;;10.95;100.00
55916;BME280;41826;53.246;-6.670;2023-03-13T10:30:33;97433.00;;;10.89;100.00
55916;BME280;41826;53.246;-6.670;2023-03-13T10:33:18;97443.50;;;10.89;100.00
55916;BME280;41826;53.246;-6.670;2023-03-13T10:35:43;97435.75;;;10.94;100.00
55916;BME280;41826;53.246;-6.670;2023-03-13T10:38:13;97442.06;;;11.04;100.00
55916;BME280;41826;53.246;-6.670;2023-03-13T10:40:39;97449.50;;;11.19;100.00
55916;BME280;41826;53.246;-6.670;2023-03-13T10:43:28;97452.34;;;11.18;100.00
55916;BME280;41826;53.246;-6.670;2023-03-13T10:45:52;97460.78;;;11.32;100.00
55916;BME280;41826;53.246;-6.670;2023-03-13T10:48:21;97459.09;;;11.25;100.00
55916;BME280;41826;53.246;-6.670;2023-03-13T10:50:49;97467.88;;;11.31;100.00
55916;BME280;41826;53.246;-6.670;2023-03-13T10:55:56;97479.94;;;11.09;100.00
55916;BME280;41826;53.246;-6.670;2023-03-13T10:58:36;97486.72;;;11.28;100.00
55916;BME280;41826;53.246;-6.670;2023-03-13T11:01:27;97490.38;;;11.39;100.00
55916;BME280;41826;53.246;-6.670;2023-03-13T11:03:55;97498.59;;;11.54;100.00
55916;BME280;41826;53.246;-6.670;2023-03-13T11:06:24;97515.28;;;11.48;100.00
55916;BME280;41826;53.246;-6.670;2023-03-13T11:11:50;97526.25;;;11.57;100.00
55916;BME280;41826;53.246;-6.670;2023-03-13T11:14:25;97530.94;;;11.66;100.00
55916;BME280;41826;53.246;-6.670;2023-03-13T11:16:54;97541.22;;;11.68;100.00
55916;BME280;41826;53.246;-6.670;2023-03-13T11:24:54;97569.88;;;11.69;100.00
55916;BME280;41826;53.246;-6.670;2023-03-13T11:27:35;97583.28;;;11.68;100.00
55916;BME280;41826;53.246;-6.670;2023-03-13T11:33:01;97602.25;;;11.82;100.00
55916;BME280;41826;53.246;-6.670;2023-03-13T11:37:55;97628.41;;;11.77;100.00
55916;BME280;41826;53.246;-6.670;2023-03-13T11:49:08;97612.94;;;12.10;100.00
55916;BME280;41826;53.246;-6.670;2023-03-13T11:51:56;97604.69;;;12.19;100.00
55916;BME280;41826;53.246;-6.670;2023-03-13T11:56:57;97604.22;;;12.22;100.00
55916;BME280;41826;53.246;-6.670;2023-03-13T11:59:43;97602.38;;;12.34;100.00
55916;BME280;41826;53.246;-6.670;2023-03-13T12:02:20;97627.75;;;12.40;100.00
55916;BME280;41826;53.246;-6.670;2023-03-13T12:05:31;97631.06;;;12.35;100.00
55916;BME280;41826;53.246;-6.670;2023-03-13T12:10:12;97650.75;;;12.56;100.00
55916;BME280;41826;53.246;-6.670;2023-03-13T12:15:23;97681.84;;;12.71;100.00
55916;BME280;41826;53.246;-6.670;2023-03-13T12:23:18;97717.66;;;12.84;100.00
55916;BME280;41826;53.246;-6.670;2023-03-13T12:28:28;97738.91;;;12.94;100.00
55916;BME280;41826;53.246;-6.670;2023-03-13T12:31:07;97761.00;;;12.93;100.00
55916;BME280;41826;53.246;-6.670;2023-03-13T12:33:43;97754.78;;;13.11;100.00
55916;BME280;41826;53.246;-6.670;2023-03-13T12:36:19;97761.78;;;13.17;100.00
55916;BME280;41826;53.246;-6.670;2023-03-13T12:38:56;97775.06;;;13.11;100.00
55916;BME280;41826;53.246;-6.670;2023-03-13T12:43:55;97791.75;;;13.16;100.00
55916;BME280;41826;53.246;-6.670;2023-03-13T12:47:30;97771.84;;;13.32;100.00
55916;BME280;41826;53.246;-6.670;2023-03-13T13:00:19;97823.16;;;13.18;100.00
55916;BME280;41826;53.246;-6.670;2023-03-13T13:02:46;97811.59;;;13.31;100.00
55916;BME280;41826;53.246;-6.670;2023-03-13T13:05:20;97816.97;;;13.48;100.00
55916;BME280;41826;53.246;-6.670;2023-03-13T13:07:55;97835.41;;;13.48;100.00
55916;BME280;41826;53.246;-6.670;2023-03-13T13:10:24;97817.66;;;13.43;100.00
55916;BME280;41826;53.246;-6.670;2023-03-13T13:15:46;97835.03;;;13.56;100.00
55916;BME280;41826;53.246;-6.670;2023-03-13T13:18:27;97842.81;;;13.62;100.00
55916;BME280;41826;53.246;-6.670;2023-03-13T13:28:58;97858.25;;;13.71;100.00
55916;BME280;41826;53.246;-6.670;2023-03-13T13:31:45;97828.94;;;13.96;100.00
55916;BME280;41826;53.246;-6.670;2023-03-13T13:36:54;97840.72;;;13.76;100.00
55916;BME280;41826;53.246;-6.670;2023-03-13T13:39:31;97821.97;;;14.18;100.00
55916;BME280;41826;53.246;-6.670;2023-03-13T13:42:00;97831.81;;;13.94;100.00
55916;BME280;41826;53.246;-6.670;2023-03-13T13:44:26;97840.16;;;14.03;100.00
55916;BME280;41826;53.246;-6.670;2023-03-13T13:46:54;97827.66;;;14.27;100.00
55916;BME280;41826;53.246;-6.670;2023-03-13T13:49:34;97815.81;;;14.29;100.00
55916;BME280;41826;53.246;-6.670;2023-03-13T13:57:15;97805.03;;;14.31;100.00
55916;BME280;41826;53.246;-6.670;2023-03-13T13:59:49;97822.59;;;14.25;100.00
55916;BME280;41826;53.246;-6.670;2023-03-13T14:02:22;97847.88;;;14.21;100.00
55916;BME280;41826;53.246;-6.670;2023-03-13T14:12:36;97874.41;;;13.74;100.00
55916;BME280;41826;53.246;-6.670;2023-03-13T14:17:51;97870.47;;;13.88;100.00
55916;BME280;41826;53.246;-6.670;2023-03-13T14:20:28;97879.94;;;13.73;100.00
55916;BME280;41826;53.246;-6.670;2023-03-13T14:22:58;97889.69;;;13.49;100.00
55916;BME280;41826;53.246;-6.670;2023-03-13T14:25:24;97879.00;;;13.67;100.00